createdAt,value
2023-01-23T00:00:47.585Z,102958.59
2023-01-23T00:03:14.140Z,102967.53
2023-01-23T00:05:40.681Z,102961.84
2023-01-23T00:08:07.270Z,102966.63
2023-01-23T00:10:33.897Z,102963.41
2023-01-23T00:13:00.371Z,102966.88
2023-01-23T00:15:27.547Z,102970.81
2023-01-23T00:17:54.166Z,102965.97
2023-01-23T00:20:20.995Z,102966.31
2023-01-23T00:22:47.659Z,102974.31
2023-01-23T00:25:14.231Z,102972.44
2023-01-23T00:27:40.721Z,102971.66
2023-01-23T00:30:07.795Z,102975.84
2023-01-23T00:32:34.318Z,102964.69
2023-01-23T00:35:02.502Z,102970.03
2023-01-23T00:37:28.990Z,102966.75
2023-01-23T00:39:55.520Z,102962.00
2023-01-23T00:42:22.150Z,102965.47
2023-01-23T00:44:48.703Z,102969.53
2023-01-23T00:47:15.199Z,102969.53
2023-01-23T00:49:41.712Z,102963.72
2023-01-23T00:52:09.333Z,102969.53
2023-01-23T00:54:38.131Z,102972.44
2023-01-23T00:57:05.327Z,102980.72
2023-01-23T00:59:31.950Z,102984.19
2023-01-23T01:01:58.674Z,102984.69
2023-01-23T01:04:25.550Z,102997.25
2023-01-23T01:06:52.063Z,102996.44
2023-01-23T01:09:18.587Z,103001.31
2023-01-23T01:11:45.128Z,102996.78
2023-01-23T01:14:11.744Z,103005.38
2023-01-23T01:16:38.545Z,103005.94
2023-01-23T01:19:05.250Z,103004.91
2023-01-23T01:21:32.697Z,103011.66
2023-01-23T01:23:59.185Z,103004.09
2023-01-23T01:26:27.274Z,103007.00
2023-01-23T01:28:53.769Z,102997.13
2023-01-23T01:31:20.353Z,103006.53
2023-01-23T01:33:48.202Z,103015.34
2023-01-23T01:36:17.475Z,103016.75
2023-01-23T01:38:46.261Z,103024.53
2023-01-23T01:41:14.396Z,103018.03
2023-01-23T01:43:41.455Z,103017.25
2023-01-23T01:46:17.195Z,103024.44
2023-01-23T01:48:47.593Z,103025.25
2023-01-23T01:51:30.412Z,103032.13
2023-01-23T01:54:03.468Z,103030.03
2023-01-23T01:56:30.878Z,103030.84
2023-01-23T01:58:58.927Z,103034.41
2023-01-23T02:01:25.710Z,103027.44
2023-01-23T02:03:53.280Z,103035.47
2023-01-23T02:06:20.133Z,103029.06
2023-01-23T02:09:05.834Z,103026.50
2023-01-23T02:11:33.421Z,103029.16
2023-01-23T02:14:00.046Z,103031.84
2023-01-23T02:16:29.720Z,103032.09
2023-01-23T02:19:02.169Z,103035.00
2023-01-23T02:21:29.678Z,103025.81
2023-01-23T02:24:17.611Z,103027.78
2023-01-23T02:26:45.841Z,103027.00
2023-01-23T02:29:14.012Z,103026.41
2023-01-23T02:31:49.628Z,103019.41
2023-01-23T02:34:16.326Z,103026.88
2023-01-23T02:36:45.840Z,103032.34
2023-01-23T02:39:18.647Z,103034.41
2023-01-23T02:41:51.145Z,103039.53
2023-01-23T02:44:28.733Z,103038.16
2023-01-23T02:47:03.999Z,103038.16
2023-01-23T02:49:31.480Z,103050.72
2023-01-23T02:51:58.105Z,103043.03
2023-01-23T02:54:25.454Z,103050.84
2023-01-23T02:56:52.109Z,103055.38
2023-01-23T02:59:48.950Z,103057.00
2023-01-23T03:02:15.920Z,103069.81
2023-01-23T03:04:42.548Z,103070.03
2023-01-23T03:07:09.073Z,103061.53
2023-01-23T03:09:35.761Z,103056.03
2023-01-23T03:12:02.797Z,103062.94
2023-01-23T03:14:31.657Z,103067.47
2023-01-23T03:16:59.151Z,103066.63
2023-01-23T03:19:31.245Z,103070.13
2023-01-23T03:21:58.443Z,103063.16
2023-01-23T03:24:25.094Z,103080.00
2023-01-23T03:26:52.101Z,103071.41
2023-01-23T03:29:42.021Z,103079.00
2023-01-23T03:32:10.166Z,103083.75
2023-01-23T03:34:37.063Z,103089.31
2023-01-23T03:37:04.158Z,103083.75
2023-01-23T03:39:51.516Z,103091.22
2023-01-23T03:42:20.375Z,103088.03
2023-01-23T03:44:48.436Z,103093.88
2023-01-23T03:47:15.260Z,103086.31
2023-01-23T03:49:41.733Z,103099.69
2023-01-23T03:52:08.384Z,103096.56
2023-01-23T03:54:35.077Z,103097.13
2023-01-23T03:57:04.722Z,103093.41
2023-01-23T03:59:55.233Z,103099.00
2023-01-23T04:02:26.224Z,103102.47
2023-01-23T04:04:53.103Z,103108.31
2023-01-23T04:07:19.839Z,103110.66
2023-01-23T04:09:46.878Z,103113.91
2023-01-23T04:12:13.725Z,103112.97
2023-01-23T04:14:43.839Z,103113.31
2023-01-23T04:17:12.253Z,103112.50
2023-01-23T04:19:39.147Z,103116.34
2023-01-23T04:22:05.665Z,103116.81
2023-01-23T04:24:38.758Z,103122.63
2023-01-23T04:27:05.399Z,103118.31
2023-01-23T04:29:33.590Z,103120.97
2023-01-23T04:32:01.352Z,103130.06
2023-01-23T04:34:29.173Z,103128.44
2023-01-23T04:36:57.375Z,103130.66
2023-01-23T04:39:24.449Z,103132.28
2023-01-23T04:41:50.979Z,103128.78
2023-01-23T04:44:36.522Z,103125.06
2023-01-23T04:47:23.325Z,103131.94
2023-01-23T04:49:50.044Z,103126.81
2023-01-23T04:52:17.824Z,103132.75
2023-01-23T04:54:52.701Z,103132.50
2023-01-23T04:57:19.616Z,103129.84
2023-01-23T04:59:46.993Z,103136.47
2023-01-23T05:02:13.577Z,103132.16
2023-01-23T05:04:44.699Z,103134.50
2023-01-23T05:07:12.383Z,103135.91
2023-01-23T05:09:43.593Z,103130.56
2023-01-23T05:12:13.689Z,103126.72
2023-01-23T05:14:41.782Z,103121.47
2023-01-23T05:17:08.431Z,103129.84
2023-01-23T05:19:39.692Z,103126.59
2023-01-23T05:22:06.713Z,103129.84
2023-01-23T05:24:33.395Z,103129.25
2023-01-23T05:27:00.048Z,103137.66
2023-01-23T05:29:29.910Z,103141.59
2023-01-23T05:32:16.749Z,103142.19
2023-01-23T05:34:43.261Z,103139.75
2023-01-23T05:37:17.272Z,103138.47
2023-01-23T05:39:47.204Z,103131.34
2023-01-23T05:42:15.021Z,103137.03
2023-01-23T05:44:53.673Z,103130.56
2023-01-23T05:47:28.120Z,103134.03
2023-01-23T05:49:55.983Z,103133.69
2023-01-23T05:52:25.705Z,103135.41
2023-01-23T05:54:52.323Z,103143.31
2023-01-23T05:57:18.968Z,103144.94
2023-01-23T06:00:13.802Z,103149.84
2023-01-23T06:02:55.051Z,103163.09
2023-01-23T06:05:24.225Z,103160.44
2023-01-23T06:08:02.806Z,103159.88
2023-01-23T06:10:29.925Z,103173.81
2023-01-23T06:12:56.608Z,103177.66
2023-01-23T06:15:23.213Z,103181.38
2023-01-23T06:17:53.238Z,103182.06
2023-01-23T06:20:20.109Z,103178.81
2023-01-23T06:22:46.800Z,103177.97
2023-01-23T06:25:14.111Z,103182.53
2023-01-23T06:27:44.358Z,103184.38
2023-01-23T06:30:16.613Z,103183.94
2023-01-23T06:32:51.486Z,103190.44
2023-01-23T06:35:23.979Z,103180.34
2023-01-23T06:37:50.692Z,103181.84
2023-01-23T06:40:19.892Z,103180.34
2023-01-23T06:43:01.941Z,103186.13
2023-01-23T06:45:28.865Z,103191.81
2023-01-23T06:47:55.533Z,103185.34
2023-01-23T06:50:23.074Z,103190.91
2023-01-23T06:52:49.688Z,103199.38
2023-01-23T06:55:16.357Z,103205.13
2023-01-23T06:57:44.227Z,103209.16
2023-01-23T07:00:12.307Z,103203.81
2023-01-23T07:02:39.921Z,103202.53
2023-01-23T07:05:06.933Z,103199.06
2023-01-23T07:07:33.522Z,103204.19
2023-01-23T07:10:00.170Z,103201.72
2023-01-23T07:12:26.843Z,103214.06
2023-01-23T07:14:53.516Z,103221.84
2023-01-23T07:17:28.748Z,103208.00
2023-01-23T07:19:55.497Z,103216.50
2023-01-23T07:22:22.669Z,103215.22
2023-01-23T07:24:49.443Z,103229.19
2023-01-23T07:27:16.458Z,103238.25
2023-01-23T07:29:44.567Z,103237.34
2023-01-23T07:32:11.452Z,103234.88
2023-01-23T07:34:38.057Z,103234.66
2023-01-23T07:37:04.560Z,103235.22
2023-01-23T07:39:31.529Z,103218.03
2023-01-23T07:41:58.070Z,103223.94
2023-01-23T07:44:27.880Z,103223.81
2023-01-23T07:46:54.585Z,103228.13
2023-01-23T07:49:21.242Z,103221.28
2023-01-23T07:51:47.804Z,103238.59
2023-01-23T07:54:14.368Z,103235.09
2023-01-23T07:56:40.998Z,103237.09
2023-01-23T07:59:07.539Z,103244.66
2023-01-23T08:01:34.055Z,103243.38
2023-01-23T08:04:00.808Z,103234.56
2023-01-23T08:06:27.384Z,103231.03
2023-01-23T08:08:53.918Z,103226.88
2023-01-23T08:11:20.432Z,103232.22
2023-01-23T08:13:50.751Z,103221.50
2023-01-23T08:16:17.554Z,103229.31
2023-01-23T08:18:44.349Z,103229.66
2023-01-23T08:21:10.927Z,103238.47
2023-01-23T08:23:37.704Z,103239.88
2023-01-23T08:26:06.595Z,103246.06
2023-01-23T08:28:33.349Z,103248.16
2023-01-23T08:31:01.232Z,103259.66
2023-01-23T08:33:27.893Z,103260.50
2023-01-23T08:35:56.480Z,103254.88
2023-01-23T08:38:23.373Z,103271.06
2023-01-23T08:40:51.620Z,103277.25
2023-01-23T08:43:19.156Z,103267.25
2023-01-23T08:45:53.634Z,103273.19
2023-01-23T08:48:21.941Z,103289.69
2023-01-23T08:50:48.887Z,103297.50
2023-01-23T08:53:15.713Z,103299.03
2023-01-23T08:55:42.446Z,103299.59
2023-01-23T08:58:13.018Z,103303.56
2023-01-23T09:00:40.252Z,103314.13
2023-01-23T09:03:06.882Z,103314.72
2023-01-23T09:05:33.767Z,103316.22
2023-01-23T09:08:00.373Z,103312.75
2023-01-23T09:10:26.941Z,103314.38
2023-01-23T09:12:57.540Z,103315.88
2023-01-23T09:15:24.080Z,103324.75
2023-01-23T09:17:50.735Z,103324.75
2023-01-23T09:20:17.648Z,103335.81
2023-01-23T09:22:44.691Z,103345.22
2023-01-23T09:25:12.284Z,103347.69
2023-01-23T09:27:38.768Z,103356.28
2023-01-23T09:30:06.095Z,103347.69
2023-01-23T09:32:32.851Z,103345.56
2023-01-23T09:34:59.336Z,103342.69
2023-01-23T09:37:25.899Z,103345.94
2023-01-23T09:39:52.406Z,103354.78
2023-01-23T09:42:26.871Z,103355.81
2023-01-23T09:45:03.755Z,103350.44
2023-01-23T09:47:38.493Z,103352.34
2023-01-23T09:50:08.408Z,103347.19
2023-01-23T09:52:42.947Z,103348.38
2023-01-23T09:55:20.374Z,103349.19
2023-01-23T09:57:52.876Z,103350.00
2023-01-23T10:00:31.766Z,103352.47
2023-01-23T10:03:03.720Z,103349.78
2023-01-23T10:05:43.979Z,103356.97
2023-01-23T10:08:17.652Z,103362.34
2023-01-23T10:10:51.688Z,103361.78
2023-01-23T10:13:23.355Z,103355.34
2023-01-23T10:16:12.430Z,103355.94
2023-01-23T10:18:44.701Z,103357.81
2023-01-23T10:21:22.122Z,103358.16
2023-01-23T10:24:26.419Z,103360.00
2023-01-23T10:26:55.445Z,103359.22
2023-01-23T10:29:30.007Z,103358.16
2023-01-23T10:31:58.863Z,103370.28
2023-01-23T10:34:35.381Z,103369.22
2023-01-23T10:37:26.957Z,103369.13
2023-01-23T10:40:02.613Z,103357.94
2023-01-23T10:42:29.168Z,103370.16
2023-01-23T10:44:55.757Z,103368.63
2023-01-23T10:47:33.685Z,103368.06
2023-01-23T10:50:01.421Z,103368.63
2023-01-23T10:52:38.306Z,103369.69
2023-01-23T10:55:11.156Z,103362.13
2023-01-23T10:57:46.636Z,103356.31
2023-01-23T11:00:34.665Z,103357.69
2023-01-23T11:03:29.345Z,103356.88
2023-01-23T11:06:03.586Z,103361.78
2023-01-23T11:08:38.686Z,103366.56
2023-01-23T11:11:14.449Z,103363.16
2023-01-23T11:13:41.986Z,103360.03
2023-01-23T11:16:16.786Z,103363.28
2023-01-23T11:18:53.388Z,103352.34
2023-01-23T11:21:24.995Z,103350.25
2023-01-23T11:24:20.430Z,103349.19
2023-01-23T11:27:01.577Z,103341.16
2023-01-23T11:29:30.538Z,103339.63
2023-01-23T11:32:04.391Z,103339.75
2023-01-23T11:34:36.608Z,103335.78
2023-01-23T11:37:12.070Z,103340.09
2023-01-23T11:39:52.391Z,103333.44
2023-01-23T11:42:19.696Z,103340.44
2023-01-23T11:44:47.360Z,103335.63
2023-01-23T11:47:51.681Z,103328.19
2023-01-23T11:50:34.251Z,103329.00
2023-01-23T11:53:33.642Z,103331.56
2023-01-23T11:56:21.575Z,103334.22
2023-01-23T11:58:54.820Z,103338.53
2023-01-23T12:02:03.360Z,103326.53
2023-01-23T12:04:39.289Z,103324.19
2023-01-23T12:07:23.583Z,103315.13
2023-01-23T12:09:56.409Z,103307.06
2023-01-23T12:12:47.107Z,103310.78
2023-01-23T12:15:23.195Z,103310.78
2023-01-23T12:18:16.175Z,103312.91
2023-01-23T12:20:49.537Z,103308.09
2023-01-23T12:23:54.491Z,103307.88
2023-01-23T12:26:24.438Z,103308.22
2023-01-23T12:29:09.808Z,103302.84
2023-01-23T12:31:59.860Z,103307.06
2023-01-23T12:34:30.910Z,103304.97
2023-01-23T12:37:19.461Z,103311.28
2023-01-23T12:39:56.111Z,103305.69
2023-01-23T12:42:33.031Z,103304.97
2023-01-23T12:45:11.715Z,103296.69
2023-01-23T12:47:40.750Z,103300.75
2023-01-23T12:50:24.028Z,103303.78
2023-01-23T12:52:54.647Z,103300.03
2023-01-23T12:55:25.018Z,103300.03
2023-01-23T12:58:07.945Z,103293.06
2023-01-23T13:01:33.365Z,103293.28
2023-01-23T13:04:15.416Z,103295.72
2023-01-23T13:06:57.483Z,103300.38
2023-01-23T13:09:23.986Z,103304.56
2023-01-23T13:12:22.038Z,103311.00
2023-01-23T13:15:12.805Z,103305.88
2023-01-23T13:17:46.211Z,103313.56
2023-01-23T13:20:37.972Z,103308.22
2023-01-23T13:23:37.072Z,103312.78
2023-01-23T13:26:15.919Z,103318.94
2023-01-23T13:28:48.218Z,103318.94
2023-01-23T13:31:50.436Z,103317.53
2023-01-23T13:34:17.529Z,103312.91
2023-01-23T13:36:46.043Z,103316.41
2023-01-23T13:39:19.763Z,103325.72
2023-01-23T13:41:48.902Z,103320.84
2023-01-23T13:44:27.097Z,103313.34
2023-01-23T14:22:10.706Z,103322.94
2023-01-23T14:24:48.369Z,103325.13
2023-01-23T14:27:30.643Z,103324.91
2023-01-23T14:30:02.790Z,103332.38
2023-01-23T14:32:33.249Z,103328.66
2023-01-23T14:35:00.336Z,103322.72
2023-01-23T14:37:27.875Z,103333.66
2023-01-23T14:39:57.934Z,103336.34
2023-01-23T14:42:27.457Z,103329.38
2023-01-23T14:44:55.814Z,103331.00
2023-01-23T14:47:34.700Z,103325.84
2023-01-23T14:50:03.752Z,103319.66
2023-01-23T14:52:31.541Z,103324.22
2023-01-23T14:55:03.333Z,103329.81
2023-01-23T14:57:34.460Z,103334.13
2023-01-23T15:00:01.274Z,103340.53
2023-01-23T15:02:34.207Z,103343.22
2023-01-23T15:05:13.699Z,103348.81
2023-01-23T15:08:00.300Z,103346.84
2023-01-23T15:10:32.993Z,103349.63
2023-01-23T15:13:11.448Z,103350.09
2023-01-23T15:15:38.673Z,103350.91
2023-01-23T15:18:16.376Z,103349.03
2023-01-23T15:20:53.228Z,103345.78
2023-01-23T15:23:31.711Z,103352.44
2023-01-23T15:26:24.297Z,103356.50
2023-01-23T15:29:01.341Z,103363.97
2023-01-23T15:31:29.504Z,103366.31
2023-01-23T15:34:10.581Z,103369.00
2023-01-23T15:36:40.243Z,103371.91
2023-01-23T15:39:16.606Z,103374.47
2023-01-23T15:41:52.574Z,103372.50
2023-01-23T15:44:21.274Z,103371.66
2023-01-23T15:46:48.056Z,103379.13
2023-01-23T15:49:24.792Z,103376.47
2023-01-23T15:51:58.705Z,103386.13
2023-01-23T15:54:33.690Z,103382.03
2023-01-23T15:57:07.401Z,103387.06
2023-01-23T15:59:37.667Z,103381.09
2023-01-23T16:02:05.938Z,103380.06
2023-01-23T16:04:33.540Z,103377.41
2023-01-23T16:07:06.053Z,103384.25
2023-01-23T16:09:37.978Z,103377.63
2023-01-23T16:12:06.082Z,103379.94
2023-01-23T16:14:36.306Z,103385.97
2023-01-23T16:17:15.933Z,103380.63
2023-01-23T16:19:44.342Z,103388.44
2023-01-23T16:22:19.634Z,103381.91
2023-01-23T16:24:46.308Z,103391.59
2023-01-23T16:27:19.891Z,103388.09
2023-01-23T16:29:49.721Z,103388.53
2023-01-23T16:32:16.658Z,103390.66
2023-01-23T16:34:43.712Z,103393.09
2023-01-23T16:37:15.944Z,103393.53
2023-01-23T16:39:44.383Z,103393.53
2023-01-23T16:42:22.899Z,103401.34
2023-01-23T16:44:50.447Z,103399.72
2023-01-23T16:47:17.671Z,103390.75
2023-01-23T16:49:53.943Z,103389.47
2023-01-23T16:52:22.866Z,103392.97
2023-01-23T16:54:52.664Z,103399.38
2023-01-23T16:57:20.353Z,103400.53
2023-01-23T16:59:47.449Z,103407.19
2023-01-23T17:02:29.962Z,103407.41
2023-01-23T17:04:57.231Z,103406.00
2023-01-23T17:07:23.854Z,103413.56
2023-01-23T17:09:51.719Z,103412.63
2023-01-23T17:12:27.685Z,103415.88
2023-01-23T17:14:55.032Z,103417.53
2023-01-23T17:17:48.599Z,103416.38
2023-01-23T17:20:15.319Z,103420.06
2023-01-23T17:22:42.690Z,103419.50
2023-01-23T17:25:16.515Z,103417.88
2023-01-23T17:27:45.817Z,103418.44
2023-01-23T17:30:19.103Z,103423.00
2023-01-23T17:32:47.808Z,103421.59
2023-01-23T17:35:21.364Z,103423.44
2023-01-23T17:37:48.341Z,103418.09
2023-01-23T17:40:15.527Z,103425.91
2023-01-23T17:42:42.803Z,103420.53
2023-01-23T17:45:17.773Z,103420.53
2023-01-23T17:47:47.747Z,103420.53
2023-01-23T17:50:23.115Z,103421.81
2023-01-23T17:52:50.656Z,103425.91
2023-01-23T17:55:19.227Z,103426.34
2023-01-23T17:57:53.465Z,103430.69
2023-01-23T18:00:20.521Z,103422.03
2023-01-23T18:02:50.028Z,103423.66
2023-01-23T18:05:16.531Z,103425.41
2023-01-23T18:07:53.423Z,103419.84
2023-01-23T18:10:22.138Z,103419.84
2023-01-23T18:13:00.804Z,103421.47
2023-01-23T18:15:37.659Z,103415.28
2023-01-23T18:18:04.267Z,103413.44
2023-01-23T18:20:32.312Z,103416.09
2023-01-23T18:23:01.524Z,103419.38
2023-01-23T18:25:28.406Z,103420.41
2023-01-23T18:27:56.258Z,103422.75
2023-01-23T18:31:00.768Z,103425.63
2023-01-23T18:33:52.222Z,103421.56
2023-01-23T18:36:21.796Z,103421.34
2023-01-23T18:39:06.461Z,103421.34
2023-01-23T18:41:33.265Z,103424.00
2023-01-23T18:44:12.715Z,103423.53
2023-01-23T18:46:39.414Z,103424.00
2023-01-23T18:49:06.245Z,103419.34
2023-01-23T18:51:45.388Z,103415.84
2023-01-23T18:54:41.215Z,103422.25
2023-01-23T18:57:23.385Z,103416.41
2023-01-23T19:00:12.687Z,103429.34
2023-01-23T19:02:50.526Z,103430.41
2023-01-23T19:05:30.257Z,103422.38
2023-01-23T19:07:58.335Z,103422.59
2023-01-23T19:10:29.044Z,103418.06
2023-01-23T19:13:11.689Z,103424.44
2023-01-23T19:15:47.149Z,103418.06
2023-01-23T19:18:40.164Z,103417.03
2023-01-23T19:21:13.313Z,103422.25
2023-01-23T19:23:53.098Z,103428.19
2023-01-23T19:26:20.509Z,103432.13
2023-01-23T19:28:47.375Z,103432.94
2023-01-23T19:31:20.453Z,103437.25
2023-01-23T19:33:47.652Z,103437.25
2023-01-23T19:36:14.484Z,103431.47
2023-01-23T19:38:41.100Z,103433.53
2023-01-23T19:41:19.456Z,103429.81
2023-01-23T19:43:51.135Z,103424.44
2023-01-23T19:46:18.836Z,103424.44
2023-01-23T19:48:45.691Z,103436.56
2023-01-23T19:51:14.452Z,103433.09
2023-01-23T19:53:41.103Z,103444.84
2023-01-23T19:56:10.722Z,103451.22
2023-01-23T19:58:37.379Z,103446.13
2023-01-23T20:01:06.291Z,103440.50
2023-01-23T20:03:32.778Z,103444.38
2023-01-23T20:05:59.735Z,103449.16
2023-01-23T20:08:26.245Z,103439.72
2023-01-23T20:10:52.825Z,103443.19
2023-01-23T20:13:19.525Z,103448.19
2023-01-23T20:15:46.028Z,103448.09
2023-01-23T20:18:12.582Z,103447.97
2023-01-23T20:20:39.118Z,103451.69
2023-01-23T20:23:05.656Z,103450.84
2023-01-23T20:25:32.185Z,103457.03
2023-01-23T20:27:58.752Z,103449.00
2023-01-23T20:30:25.557Z,103460.06
2023-01-23T20:32:52.255Z,103458.22
2023-01-23T20:35:18.802Z,103464.03
2023-01-23T20:37:45.512Z,103466.69
2023-01-23T20:40:12.145Z,103468.53
2023-01-23T20:42:39.343Z,103469.38
2023-01-23T20:45:07.037Z,103467.75
2023-01-23T20:47:36.040Z,103465.88
2023-01-23T20:50:02.919Z,103465.28
2023-01-23T20:52:48.256Z,103473.09
2023-01-23T20:55:14.845Z,103475.41
2023-01-23T20:57:59.821Z,103475.63
2023-01-23T21:00:26.373Z,103475.63
2023-01-23T21:02:53.255Z,103475.63
2023-01-23T21:05:20.209Z,103469.72
2023-01-23T21:07:46.933Z,103478.91
2023-01-23T21:10:13.532Z,103472.75
2023-01-23T21:12:40.086Z,103474.00
2023-01-23T21:15:07.081Z,103477.25
2023-01-23T21:17:33.616Z,103480.16
2023-01-23T21:20:00.217Z,103484.72
2023-01-23T21:22:26.768Z,103492.75
2023-01-23T21:24:53.340Z,103494.16
2023-01-23T21:27:21.264Z,103487.19
2023-01-23T21:29:48.912Z,103485.88
2023-01-23T21:32:15.458Z,103476.22
2023-01-23T21:34:41.946Z,103485.06
2023-01-23T21:37:10.823Z,103489.16
2023-01-23T21:39:39.122Z,103485.06
2023-01-23T21:42:06.015Z,103489.84
2023-01-23T21:44:34.588Z,103477.75
2023-01-23T21:47:02.351Z,103479.59
2023-01-23T21:49:30.477Z,103478.19
2023-01-23T21:51:56.998Z,103477.13
2023-01-23T21:54:23.555Z,103476.56
2023-01-23T21:56:50.165Z,103485.16
2023-01-23T21:59:16.707Z,103479.38
2023-01-23T22:01:43.270Z,103490.06
2023-01-23T22:04:12.688Z,103484.72
2023-01-23T22:06:41.082Z,103475.06
2023-01-23T22:09:08.412Z,103473.53
2023-01-23T22:11:34.986Z,103474.00
2023-01-23T22:14:01.496Z,103475.06
2023-01-23T22:16:47.121Z,103476.91
2023-01-23T22:19:15.919Z,103472.38
2023-01-23T22:21:43.719Z,103471.34
2023-01-23T22:24:10.302Z,103475.63
2023-01-23T22:26:37.159Z,103478.75
2023-01-23T22:29:03.683Z,103481.91
2023-01-23T22:31:30.439Z,103488.31
2023-01-23T22:33:57.101Z,103492.59
2023-01-23T22:36:23.629Z,103489.31
2023-01-23T22:38:51.765Z,103486.06
2023-01-23T22:41:18.535Z,103483.97
2023-01-23T22:43:45.044Z,103487.69
2023-01-23T22:46:15.928Z,103487.94
2023-01-23T22:48:42.556Z,103486.28
2023-01-23T22:51:18.336Z,103487.31
2023-01-23T22:53:44.867Z,103484.06
2023-01-23T22:56:11.825Z,103482.88
2023-01-23T22:58:38.354Z,103487.41
2023-01-23T23:01:05.250Z,103484.38
2023-01-23T23:03:33.305Z,103481.69
2023-01-23T23:06:02.093Z,103491.59
2023-01-23T23:08:28.886Z,103489.56
2023-01-23T23:11:07.279Z,103485.19
2023-01-23T23:13:35.294Z,103487.28
2023-01-23T23:16:10.695Z,103482.97
2023-01-23T23:18:39.232Z,103484.47
2023-01-23T23:21:08.197Z,103482.16
2023-01-23T23:23:35.322Z,103470.25
2023-01-23T23:26:01.858Z,103470.13
2023-01-23T23:28:28.372Z,103470.94
2023-01-23T23:30:54.854Z,103467.06
2023-01-23T23:33:21.360Z,103455.56
2023-01-23T23:35:47.893Z,103454.75
2023-01-23T23:38:14.670Z,103458.47
2023-01-23T23:40:41.337Z,103456.81
2023-01-23T23:43:08.152Z,103460.31
2023-01-23T23:45:35.194Z,103467.50
2023-01-23T23:48:02.307Z,103460.09
2023-01-23T23:50:29.321Z,103463.34
2023-01-23T23:52:55.954Z,103458.00
2023-01-23T23:55:22.895Z,103458.69
2023-01-23T23:57:49.653Z,103462.16
